createdAt,value
2023-02-11T00:00:42.507Z,34.03
2023-02-11T00:03:10.908Z,27.53
2023-02-11T00:05:38.753Z,31.13
2023-02-11T00:08:06.609Z,37.40
2023-02-11T00:10:34.645Z,29.23
2023-02-11T00:13:02.580Z,40.87
2023-02-11T00:15:30.341Z,32.40
2023-02-11T00:17:59.421Z,31.37
2023-02-11T00:20:27.180Z,30.47
2023-02-11T00:22:54.906Z,28.77
2023-02-11T00:25:22.636Z,33.00
2023-02-11T00:27:50.386Z,32.87
2023-02-11T00:30:18.240Z,31.97
2023-02-11T00:32:46.099Z,30.87
2023-02-11T00:35:15.572Z,34.60
2023-02-11T00:37:43.404Z,29.50
2023-02-11T00:40:12.788Z,34.07
2023-02-11T00:42:40.777Z,34.87
2023-02-11T00:45:09.751Z,30.07
2023-02-11T00:47:37.840Z,31.63
2023-02-11T00:50:06.599Z,30.33
2023-02-11T00:52:35.895Z,33.83
2023-02-11T00:55:03.707Z,35.17
2023-02-11T00:57:33.338Z,31.53
2023-02-11T01:00:01.072Z,33.57
2023-02-11T01:02:30.857Z,33.87
2023-02-11T01:04:59.746Z,31.00
2023-02-11T01:07:28.299Z,28.60
2023-02-11T01:09:57.643Z,28.90
2023-02-11T01:12:25.901Z,26.27
2023-02-11T01:14:53.711Z,29.77
2023-02-11T01:17:21.509Z,33.17
2023-02-11T01:19:51.094Z,31.30
2023-02-11T01:22:18.953Z,30.23
2023-02-11T01:24:48.357Z,32.60
2023-02-11T01:27:17.520Z,27.03
2023-02-11T01:29:45.726Z,33.73
2023-02-11T01:32:14.245Z,36.03
2023-02-11T01:34:41.976Z,35.20
2023-02-11T01:37:09.716Z,29.70
2023-02-11T01:39:37.482Z,35.77
2023-02-11T01:42:06.651Z,34.20
2023-02-11T01:44:38.467Z,27.33
2023-02-11T01:47:06.917Z,30.00
2023-02-11T01:49:37.445Z,31.77
2023-02-11T01:52:10.405Z,29.23
2023-02-11T01:55:00.656Z,29.83
2023-02-11T01:57:33.382Z,30.27
2023-02-11T02:00:09.222Z,29.77
2023-02-11T02:02:50.158Z,26.50
2023-02-11T02:05:25.525Z,33.87
2023-02-11T02:08:01.285Z,25.67
2023-02-11T02:10:31.318Z,24.90
2023-02-11T02:12:59.046Z,34.67
2023-02-11T02:15:34.115Z,37.57
2023-02-11T02:18:18.259Z,32.57
2023-02-11T02:21:27.658Z,34.60
2023-02-11T02:24:32.616Z,28.17
2023-02-11T02:27:20.576Z,31.70
2023-02-11T02:30:15.750Z,36.27
2023-02-11T02:32:56.825Z,33.63
2023-02-11T02:35:36.604Z,31.13
2023-02-11T02:38:09.582Z,29.07
2023-02-11T02:40:43.018Z,35.77
2023-02-11T02:43:12.163Z,28.80
2023-02-11T02:45:39.991Z,35.20
2023-02-11T02:48:29.329Z,28.07
2023-02-11T02:51:08.636Z,26.53
2023-02-11T02:53:51.021Z,37.20
2023-02-11T02:56:26.471Z,28.80
2023-02-11T02:59:23.266Z,29.37
2023-02-11T03:02:03.478Z,32.23
2023-02-11T03:04:41.746Z,33.43
2023-02-11T03:07:17.016Z,28.67
2023-02-11T03:09:55.816Z,26.03
2023-02-11T03:12:28.744Z,27.53
2023-02-11T03:14:56.432Z,31.53
2023-02-11T03:17:26.316Z,30.50
2023-02-11T03:19:57.806Z,30.00
2023-02-11T03:22:31.497Z,27.97
2023-02-11T03:25:03.364Z,27.37
2023-02-11T03:27:42.492Z,35.10
2023-02-11T03:30:14.089Z,28.03
2023-02-11T03:32:44.974Z,32.90
2023-02-11T03:35:19.635Z,33.60
2023-02-11T03:37:53.313Z,29.30
2023-02-11T03:40:23.454Z,32.17
2023-02-11T03:42:55.619Z,34.23
2023-02-11T03:45:26.043Z,31.57
2023-02-11T03:48:04.461Z,30.43
2023-02-11T03:50:36.808Z,24.47
2023-02-11T03:53:06.029Z,26.77
2023-02-11T03:55:37.983Z,31.07
2023-02-11T03:58:05.819Z,34.00
2023-02-11T04:00:36.609Z,31.20
2023-02-11T04:03:04.553Z,31.50
2023-02-11T04:05:37.295Z,32.00
2023-02-11T04:08:05.708Z,31.50
2023-02-11T04:10:33.542Z,33.70
2023-02-11T04:13:01.249Z,29.20
2023-02-11T04:15:29.149Z,26.03
2023-02-11T04:17:56.938Z,25.53
2023-02-11T04:20:24.883Z,34.33
2023-02-11T04:22:53.950Z,32.37
2023-02-11T04:25:22.066Z,30.20
2023-02-11T04:27:49.845Z,31.77
2023-02-11T04:30:17.576Z,26.73
2023-02-11T04:32:45.544Z,31.60
2023-02-11T04:35:13.322Z,28.80
2023-02-11T04:37:41.059Z,32.60
2023-02-11T04:40:11.421Z,31.33
2023-02-11T04:42:39.210Z,34.67
2023-02-11T04:45:07.968Z,27.10
2023-02-11T04:47:37.598Z,27.20
2023-02-11T04:50:05.710Z,26.90
2023-02-11T04:52:33.456Z,29.47
2023-02-11T04:55:01.181Z,30.57
2023-02-11T04:57:30.265Z,31.27
2023-02-11T04:59:58.023Z,32.73
2023-02-11T05:02:25.894Z,26.10
2023-02-11T05:04:53.659Z,28.53
2023-02-11T05:07:21.377Z,30.30
2023-02-11T05:09:49.221Z,27.83
2023-02-11T05:12:16.985Z,29.73
2023-02-11T05:14:46.129Z,27.60
2023-02-11T05:17:13.877Z,30.30
2023-02-11T05:19:42.840Z,31.13
2023-02-11T05:22:10.640Z,30.03
2023-02-11T05:24:38.376Z,22.60
2023-02-11T05:27:06.088Z,28.27
2023-02-11T05:29:33.859Z,30.87
2023-02-11T05:32:02.927Z,24.40
2023-02-11T05:34:30.708Z,25.03
2023-02-11T05:36:58.428Z,28.23
2023-02-11T05:39:26.215Z,30.83
2023-02-11T05:41:54.000Z,29.93
2023-02-11T05:44:22.049Z,28.53
2023-02-11T05:46:50.220Z,29.47
2023-02-11T05:49:19.618Z,34.13
2023-02-11T05:51:47.388Z,33.53
2023-02-11T05:54:15.201Z,27.50
2023-02-11T05:56:44.833Z,30.00
2023-02-11T05:59:14.696Z,28.10
2023-02-11T06:01:42.487Z,28.37
2023-02-11T06:04:10.251Z,29.90
2023-02-11T06:06:39.336Z,28.87
2023-02-11T06:09:07.137Z,25.17
2023-02-11T06:11:34.893Z,26.23
2023-02-11T06:14:02.941Z,29.17
2023-02-11T06:16:30.874Z,29.93
2023-02-11T06:18:58.706Z,26.40
2023-02-11T06:21:36.347Z,29.43
2023-02-11T06:24:11.813Z,30.07
2023-02-11T06:26:39.558Z,32.77
2023-02-11T06:29:07.340Z,30.90
2023-02-11T06:31:37.773Z,27.83
2023-02-11T06:34:06.048Z,26.27
2023-02-11T06:36:34.035Z,29.23
2023-02-11T06:39:01.792Z,28.97
2023-02-11T06:41:31.070Z,25.90
2023-02-11T06:43:58.788Z,23.13
2023-02-11T06:46:26.808Z,25.00
2023-02-11T06:48:54.632Z,29.33
2023-02-11T06:51:22.344Z,27.07
2023-02-11T06:53:50.567Z,24.37
2023-02-11T06:56:20.194Z,28.17
2023-02-11T06:58:53.389Z,30.83
2023-02-11T07:01:21.376Z,27.13
2023-02-11T07:03:52.452Z,27.93
2023-02-11T07:06:24.787Z,27.73
2023-02-11T07:08:55.623Z,27.80
2023-02-11T07:11:25.899Z,24.53
2023-02-11T07:13:57.541Z,26.67
2023-02-11T07:16:25.327Z,29.63
2023-02-11T07:18:53.214Z,25.97
2023-02-11T07:21:22.534Z,28.23
2023-02-11T07:23:50.395Z,31.93
2023-02-11T07:26:21.275Z,27.90
2023-02-11T07:28:48.972Z,24.87
2023-02-11T07:31:20.602Z,25.47
2023-02-11T07:33:48.545Z,28.27
2023-02-11T07:36:17.586Z,31.77
2023-02-11T07:38:45.519Z,24.77
2023-02-11T07:41:20.597Z,23.63
2023-02-11T07:43:48.715Z,30.30
2023-02-11T07:46:19.858Z,21.93
2023-02-11T07:48:47.966Z,22.93
2023-02-11T07:51:17.821Z,28.00
2023-02-11T07:53:45.861Z,25.50
2023-02-11T07:56:15.195Z,27.77
2023-02-11T07:58:43.343Z,28.03
2023-02-11T08:01:14.234Z,25.20
2023-02-11T08:03:43.779Z,26.47
2023-02-11T08:06:13.191Z,23.67
2023-02-11T08:08:41.276Z,25.93
2023-02-11T08:11:09.300Z,24.10
2023-02-11T08:13:37.637Z,26.77
2023-02-11T08:16:06.749Z,26.97
2023-02-11T08:18:35.817Z,21.97
2023-02-11T08:21:09.308Z,22.40
2023-02-11T08:23:38.116Z,23.83
2023-02-11T08:26:07.475Z,26.57
2023-02-11T08:28:36.659Z,22.53
2023-02-11T08:31:07.728Z,22.07
2023-02-11T08:33:35.655Z,24.30
2023-02-11T08:36:10.947Z,26.73
2023-02-11T08:38:39.130Z,30.40
2023-02-11T08:41:07.852Z,26.47
2023-02-11T08:43:35.647Z,26.43
2023-02-11T08:46:04.095Z,25.77
2023-02-11T08:48:31.826Z,28.10
2023-02-11T08:50:59.694Z,26.47
2023-02-11T08:53:28.772Z,24.87
2023-02-11T08:55:58.093Z,23.77
2023-02-11T08:58:25.913Z,26.40
2023-02-11T09:00:54.112Z,28.00
2023-02-11T09:03:22.072Z,26.13
2023-02-11T09:05:53.106Z,26.13
2023-02-11T09:08:21.752Z,22.67
2023-02-11T09:10:51.147Z,23.93
2023-02-11T09:13:19.104Z,25.13
2023-02-11T09:15:47.428Z,25.77
2023-02-11T09:18:15.304Z,22.47
2023-02-11T09:20:43.235Z,22.77
2023-02-11T09:23:12.350Z,25.23
2023-02-11T09:25:40.624Z,27.93
2023-02-11T09:28:11.413Z,21.43
2023-02-11T09:30:39.711Z,25.60
2023-02-11T09:33:07.685Z,26.00
2023-02-11T09:35:35.679Z,27.00
2023-02-11T09:38:03.497Z,26.90
2023-02-11T09:40:31.436Z,25.83
2023-02-11T09:43:05.172Z,26.57
2023-02-11T09:45:34.386Z,25.10
2023-02-11T09:48:06.578Z,24.00
2023-02-11T09:50:37.290Z,26.07
2023-02-11T09:53:12.785Z,25.57
2023-02-11T09:55:43.175Z,22.97
2023-02-11T09:58:15.337Z,22.87
2023-02-11T10:00:49.851Z,22.50
2023-02-11T10:03:43.530Z,20.00
2023-02-11T10:06:25.795Z,22.73
2023-02-11T10:09:03.150Z,18.70
2023-02-11T10:11:41.897Z,19.17
2023-02-11T10:14:22.496Z,22.40
2023-02-11T10:17:04.425Z,18.07
2023-02-11T10:19:44.163Z,25.30
2023-02-11T10:22:18.784Z,21.73
2023-02-11T10:24:53.398Z,22.07
2023-02-11T10:27:23.031Z,24.83
2023-02-11T10:29:54.747Z,29.27
2023-02-11T10:32:33.437Z,22.60
2023-02-11T10:35:10.429Z,19.37
2023-02-11T10:37:38.146Z,25.63
2023-02-11T10:40:08.317Z,19.80
2023-02-11T10:42:36.943Z,20.03
2023-02-11T10:45:07.278Z,17.13
2023-02-11T10:47:39.433Z,18.77
2023-02-11T10:50:20.945Z,17.83
2023-02-11T10:52:51.097Z,18.23
2023-02-11T10:55:21.648Z,17.60
2023-02-11T10:57:57.485Z,12.37
2023-02-11T11:00:34.169Z,8.20
2023-02-11T11:03:05.871Z,9.37
2023-02-11T11:05:36.162Z,6.37
2023-02-11T11:08:06.628Z,6.50
2023-02-11T11:10:43.419Z,6.57
2023-02-11T11:13:28.615Z,6.87
2023-02-11T11:16:16.532Z,7.30
2023-02-11T11:18:47.461Z,9.83
2023-02-11T11:21:18.972Z,9.57
2023-02-11T11:23:53.594Z,7.97
2023-02-11T11:26:25.059Z,7.03
2023-02-11T11:28:58.122Z,8.70
2023-02-11T11:31:29.526Z,7.77
2023-02-11T11:34:01.186Z,6.70
2023-02-11T11:36:40.197Z,9.63
2023-02-11T11:39:20.415Z,7.47
2023-02-11T11:41:57.380Z,11.10
2023-02-11T11:44:29.789Z,8.80
2023-02-11T11:47:31.225Z,8.03
2023-02-11T11:50:26.308Z,7.27
2023-02-11T11:53:01.188Z,9.17
2023-02-11T11:55:34.248Z,10.83
2023-02-11T11:58:02.058Z,9.27
2023-02-11T12:00:36.422Z,8.23
2023-02-11T12:03:34.010Z,7.47
2023-02-11T12:06:21.986Z,10.03
2023-02-11T12:09:01.676Z,9.73
2023-02-11T12:11:37.346Z,8.47
2023-02-11T12:14:14.866Z,9.10
2023-02-11T12:16:53.783Z,10.07
2023-02-11T12:19:45.460Z,8.83
2023-02-11T12:22:26.756Z,9.90
2023-02-11T12:25:19.743Z,9.33
2023-02-11T12:27:55.757Z,11.47
2023-02-11T12:30:40.003Z,12.33
2023-02-11T12:33:16.545Z,11.23
2023-02-11T12:35:54.941Z,8.77
2023-02-11T12:38:40.547Z,10.10
2023-02-11T12:41:42.969Z,9.40
2023-02-11T12:44:24.152Z,9.70
2023-02-11T12:47:02.120Z,7.43
2023-02-11T12:49:52.165Z,7.50
2023-02-11T12:52:41.532Z,12.23
2023-02-11T12:55:20.812Z,11.90
2023-02-11T12:57:51.076Z,11.57
2023-02-11T13:00:22.184Z,14.90
2023-02-11T13:02:57.350Z,15.53
2023-02-11T13:05:30.014Z,15.77
2023-02-11T13:08:03.681Z,16.67
2023-02-11T13:10:36.012Z,16.63
2023-02-11T13:13:18.192Z,18.30
2023-02-11T13:15:51.104Z,16.63
2023-02-11T13:18:28.513Z,17.27
2023-02-11T13:21:06.852Z,15.13
2023-02-11T13:23:42.633Z,16.07
2023-02-11T13:26:20.519Z,19.20
2023-02-11T13:28:53.968Z,15.60
2023-02-11T13:31:26.622Z,21.20
2023-02-11T13:33:54.473Z,19.03
2023-02-11T13:36:25.480Z,19.93
2023-02-11T13:38:56.927Z,16.67
2023-02-11T13:41:30.329Z,16.37
2023-02-11T13:44:00.500Z,16.00
2023-02-11T13:46:30.921Z,16.80
2023-02-11T13:48:59.474Z,16.27
2023-02-11T13:51:40.104Z,20.70
2023-02-11T13:54:09.828Z,18.53
2023-02-11T13:56:40.888Z,18.33
2023-02-11T13:59:45.523Z,16.50
2023-02-11T14:02:43.557Z,17.63
2023-02-11T14:05:43.655Z,16.50
2023-02-11T14:08:39.412Z,14.50
2023-02-11T14:11:12.288Z,15.73
2023-02-11T14:14:03.295Z,15.53
2023-02-11T14:16:38.051Z,14.37
2023-02-11T14:19:09.587Z,14.33
2023-02-11T14:21:40.795Z,16.63
2023-02-11T14:24:47.797Z,15.57
2023-02-11T14:27:25.553Z,14.27
2023-02-11T14:30:21.285Z,16.40
2023-02-11T14:33:06.834Z,16.50
2023-02-11T14:35:42.834Z,14.90
2023-02-11T14:38:20.678Z,18.03
2023-02-11T14:40:58.523Z,18.13
2023-02-11T14:43:31.707Z,14.70
2023-02-11T14:46:02.342Z,15.23
2023-02-11T14:48:32.906Z,13.93
2023-02-11T14:51:07.838Z,16.13
2023-02-11T14:53:37.677Z,13.97
2023-02-11T14:56:18.895Z,14.37
2023-02-11T14:58:51.805Z,14.93
2023-02-11T15:01:27.923Z,14.77
2023-02-11T15:03:56.700Z,14.03
2023-02-11T15:06:30.776Z,13.17
2023-02-11T15:09:03.817Z,13.17
2023-02-11T15:11:35.428Z,13.50
2023-02-11T15:14:09.648Z,13.83
2023-02-11T15:16:42.476Z,17.00
2023-02-11T15:19:21.025Z,13.70
2023-02-11T15:21:51.660Z,15.43
2023-02-11T15:24:25.359Z,11.77
2023-02-11T15:27:05.094Z,17.17
2023-02-11T15:29:38.259Z,17.77
2023-02-11T15:32:15.440Z,13.77
2023-02-11T15:34:44.142Z,16.73
2023-02-11T15:37:20.848Z,15.43
2023-02-11T15:39:48.630Z,15.03
2023-02-11T15:42:21.623Z,14.10
2023-02-11T15:45:11.905Z,14.70
2023-02-11T15:47:41.871Z,17.30
2023-02-11T15:50:22.142Z,13.03
2023-02-11T15:52:52.902Z,13.60
2023-02-11T15:55:21.645Z,14.60
2023-02-11T15:57:54.803Z,17.40
2023-02-11T16:00:25.493Z,13.90
2023-02-11T16:02:54.031Z,16.23
2023-02-11T16:05:31.699Z,14.80
2023-02-11T16:08:01.566Z,18.50
2023-02-11T16:10:31.986Z,15.43
2023-02-11T16:13:20.197Z,13.97
2023-02-11T16:15:52.356Z,13.57
2023-02-11T16:18:39.595Z,18.47
2023-02-11T16:21:16.728Z,15.83
2023-02-11T16:23:51.979Z,17.50
2023-02-11T16:26:27.885Z,16.53
2023-02-11T16:29:10.849Z,17.30
2023-02-11T16:31:40.955Z,17.17
2023-02-11T16:34:14.722Z,16.27
2023-02-11T16:36:42.910Z,15.23
2023-02-11T16:39:12.370Z,16.40
2023-02-11T16:41:40.291Z,20.93
2023-02-11T16:44:08.106Z,18.47
2023-02-11T16:46:38.822Z,20.73
2023-02-11T16:49:11.363Z,18.80
2023-02-11T16:51:41.542Z,19.83
2023-02-11T16:54:14.725Z,17.13
2023-02-11T16:56:43.113Z,19.23
2023-02-11T16:59:10.877Z,19.00
2023-02-11T17:01:40.320Z,18.00
2023-02-11T17:04:17.512Z,16.90
2023-02-11T17:06:45.297Z,18.70
2023-02-11T17:09:19.717Z,16.80
2023-02-11T17:11:47.761Z,17.37
2023-02-11T17:14:15.927Z,16.90
2023-02-11T17:16:47.058Z,20.70
2023-02-11T17:19:16.640Z,16.67
2023-02-11T17:21:44.877Z,17.80
2023-02-11T17:24:14.280Z,16.23
2023-02-11T17:26:45.181Z,15.17
2023-02-11T17:29:17.181Z,17.93
2023-02-11T17:31:45.916Z,14.60
2023-02-11T17:34:13.920Z,21.10
2023-02-11T17:36:42.003Z,16.83
2023-02-11T17:39:10.185Z,17.30
2023-02-11T17:41:38.858Z,20.63
2023-02-11T17:44:12.199Z,20.70
2023-02-11T17:46:39.973Z,16.70
2023-02-11T17:49:07.748Z,18.90
2023-02-11T17:51:37.425Z,14.47
2023-02-11T17:54:07.881Z,17.47
2023-02-11T17:56:37.431Z,20.23
2023-02-11T17:59:06.696Z,21.40
2023-02-11T18:01:37.047Z,20.83
2023-02-11T18:04:05.482Z,23.50
2023-02-11T18:06:34.817Z,19.57
2023-02-11T18:09:04.205Z,19.50
2023-02-11T18:11:33.729Z,16.73
2023-02-11T18:14:01.984Z,19.20
2023-02-11T18:16:30.462Z,20.93
2023-02-11T18:18:59.942Z,20.50
2023-02-11T18:21:28.633Z,21.03
2023-02-11T18:23:56.940Z,22.60
2023-02-11T18:26:27.948Z,20.53
2023-02-11T18:28:57.614Z,20.23
2023-02-11T18:31:26.419Z,20.77
2023-02-11T18:33:57.010Z,18.43
2023-02-11T18:36:28.682Z,16.33
2023-02-11T18:38:58.135Z,19.87
2023-02-11T18:41:25.976Z,18.30
2023-02-11T18:43:54.220Z,15.80
2023-02-11T18:46:24.323Z,14.33
2023-02-11T18:48:55.841Z,13.07
2023-02-11T18:51:24.172Z,18.33
2023-02-11T18:53:53.530Z,18.80
2023-02-11T18:56:24.558Z,17.93
2023-02-11T18:58:52.402Z,23.63
2023-02-11T19:01:22.841Z,18.90
2023-02-11T19:03:51.613Z,23.13
2023-02-11T19:06:21.659Z,22.00
2023-02-11T19:08:49.492Z,22.70
2023-02-11T19:11:19.831Z,22.47
2023-02-11T19:13:48.749Z,19.27
2023-02-11T19:16:19.689Z,22.87
2023-02-11T19:18:47.546Z,21.60
2023-02-11T19:21:15.366Z,21.40
2023-02-11T19:23:43.115Z,18.70
2023-02-11T19:26:10.833Z,23.77
2023-02-11T19:28:39.910Z,20.00
2023-02-11T19:31:09.367Z,23.57
2023-02-11T19:33:37.690Z,29.20
2023-02-11T19:36:07.072Z,17.63
2023-02-11T19:38:35.634Z,19.87
2023-02-11T19:41:03.745Z,21.10
2023-02-11T19:43:31.868Z,21.93
2023-02-11T19:46:02.605Z,16.80
2023-02-11T19:48:30.558Z,16.83
2023-02-11T19:50:58.572Z,18.23
2023-02-11T19:53:26.336Z,20.40
2023-02-11T19:55:54.442Z,16.23
2023-02-11T19:58:22.292Z,24.63
2023-02-11T20:00:50.057Z,22.90
2023-02-11T20:03:19.157Z,20.13
2023-02-11T20:05:47.742Z,23.07
2023-02-11T20:08:16.983Z,19.93
2023-02-11T20:10:44.727Z,18.80
2023-02-11T20:13:12.402Z,18.00
2023-02-11T20:15:40.312Z,21.77
2023-02-11T20:18:08.118Z,16.37
2023-02-11T20:20:38.957Z,20.97
2023-02-11T20:23:06.687Z,22.10
2023-02-11T20:25:34.410Z,22.17
2023-02-11T20:28:02.259Z,18.40
2023-02-11T20:30:30.170Z,16.33
2023-02-11T20:32:58.450Z,21.83
2023-02-11T20:35:26.172Z,22.97
2023-02-11T20:37:55.299Z,19.67
2023-02-11T20:40:22.976Z,22.53
2023-02-11T20:42:50.744Z,19.30
2023-02-11T20:45:18.647Z,22.67
2023-02-11T20:47:46.338Z,22.23
2023-02-11T20:50:14.148Z,25.17
2023-02-11T20:52:41.957Z,26.07
2023-02-11T20:55:11.010Z,20.77
2023-02-11T20:57:38.784Z,20.17
2023-02-11T21:00:07.776Z,21.80
2023-02-11T21:02:35.469Z,20.60
2023-02-11T21:05:03.248Z,23.27
2023-02-11T21:07:31.363Z,24.50
2023-02-11T21:09:59.167Z,24.93
2023-02-11T21:12:28.315Z,31.03
2023-02-11T21:14:57.086Z,28.13
2023-02-11T21:17:26.363Z,21.00
2023-02-11T21:19:54.145Z,23.37
2023-02-11T21:22:21.865Z,21.60
2023-02-11T21:24:51.733Z,27.50
2023-02-11T21:27:19.763Z,23.50
2023-02-11T21:29:54.287Z,25.07
2023-02-11T21:32:22.553Z,26.20
2023-02-11T21:34:50.270Z,23.63
2023-02-11T21:37:18.051Z,22.20
2023-02-11T21:39:45.774Z,19.33
2023-02-11T21:42:13.479Z,22.40
2023-02-11T21:44:44.315Z,29.23
2023-02-11T21:47:13.370Z,27.13
2023-02-11T21:49:41.251Z,26.90
2023-02-11T21:52:09.059Z,27.10
2023-02-11T21:54:36.740Z,26.03
2023-02-11T21:57:04.623Z,23.13
2023-02-11T21:59:32.716Z,26.03
2023-02-11T22:02:00.504Z,27.37
2023-02-11T22:04:29.702Z,25.87
2023-02-11T22:06:57.438Z,22.97
2023-02-11T22:09:25.280Z,19.30
2023-02-11T22:11:53.609Z,21.07
2023-02-11T22:14:21.377Z,21.00
2023-02-11T22:16:49.216Z,21.30
2023-02-11T22:19:17.282Z,24.57
2023-02-11T22:21:46.362Z,23.23
2023-02-11T22:24:14.036Z,24.23
2023-02-11T22:26:41.853Z,23.40
2023-02-11T22:29:09.672Z,23.97
2023-02-11T22:31:38.017Z,28.87
2023-02-11T22:34:08.193Z,29.23
2023-02-11T22:36:40.160Z,25.17
2023-02-11T22:39:12.818Z,28.63
2023-02-11T22:41:41.836Z,25.17
2023-02-11T22:44:10.289Z,25.17
2023-02-11T22:46:38.411Z,20.23
2023-02-11T22:49:09.042Z,17.47
2023-02-11T22:51:36.910Z,18.77
2023-02-11T22:54:06.602Z,20.73
2023-02-11T22:56:36.225Z,25.83
2023-02-11T22:59:10.227Z,27.97
2023-02-11T23:01:38.227Z,29.87
2023-02-11T23:04:11.184Z,26.33
2023-02-11T23:06:39.254Z,20.83
2023-02-11T23:09:07.677Z,22.50
2023-02-11T23:11:37.095Z,24.63
2023-02-11T23:14:05.273Z,21.53
2023-02-11T23:16:36.134Z,26.47
2023-02-11T23:19:07.192Z,24.20
2023-02-11T23:21:38.041Z,27.27
2023-02-11T23:24:08.469Z,26.43
2023-02-11T23:26:38.899Z,22.10
2023-02-11T23:29:09.553Z,22.17
2023-02-11T23:31:39.879Z,19.90
2023-02-11T23:34:08.395Z,28.40
2023-02-11T23:36:36.653Z,24.00
2023-02-11T23:39:05.550Z,23.97
2023-02-11T23:41:33.335Z,28.33
2023-02-11T23:44:02.549Z,22.80
2023-02-11T23:46:30.368Z,25.13
2023-02-11T23:48:58.086Z,20.93
2023-02-11T23:51:25.824Z,23.83
2023-02-11T23:53:55.987Z,21.67
2023-02-11T23:56:28.071Z,19.73
2023-02-11T23:58:57.988Z,25.80
